Latest Weather Observations for Hobart

IDT60901

Issued at 8:35 pm EDT Saturday 25 October 2014 (issued every 10 minutes, with the page automatically refreshed every 10 minutes)

About weather observations | Map of Hobart area stations | Latest observations for Hobart area | Other Formats
Station Details ID: 094029 Name: HOBART (ELLERSLIE ROAD) Lat: -42.89 Lon: 147.33 Height: 50.5 m
Data from the previous 72 hours. | See also: Recent months at Hobart
Date/Time
EDT
Tmp

°C
App
Tmp
°C
Dew
Point
°C
Rel
Hum
%
Delta-T

°C
Wind Press
QNH
hPa
Press
MSL
hPa
Rain
since
9 am
mm
Dir
 
Spd
km/h
Gust
km/h
Spd
kts
Gust
kts
25/08:30pm 11.4 6.5 5.1 65 2.9 SSE 20 28 11 15 1018.3 1018.3 0.0
25/08:00pm 11.5 6.2 5.2 65 2.9 SSE 22 28 12 15 1017.8 1017.8 0.0
25/07:30pm 11.7 7.1 5.4 65 2.9 SSE 19 26 10 14 1017.8 1017.8 0.0
25/07:00pm 11.7 6.5 5.7 66 2.8 SSE 22 32 12 17 1017.6 1017.6 0.0
25/06:30pm 11.9 6.4 5.7 66 2.9 SSE 24 35 13 19 1017.3 1017.3 0.0
25/06:00pm 12.2 7.2 6.3 67 2.8 SSE 22 33 12 18 1017.4 1017.4 0.0
25/05:30pm 12.4 7.0 6.5 67 2.8 SSE 24 33 13 18 1016.8 1016.8 0.0
25/05:00pm 12.6 6.5 6.5 66 2.9 SE 28 37 15 20 1016.7 1016.7 0.0
25/04:30pm 13.1 7.1 7.1 67 2.9 SE 28 35 15 19 1016.6 1016.6 0.0
25/04:00pm 13.5 7.3 7.8 68 2.8 SE 30 39 16 21 1016.4 1016.4 0.0
25/03:30pm 13.7 7.2 8.3 70 2.7 SE 32 41 17 22 1016.5 1016.5 0.0
25/03:00pm 14.0 8.1 9.1 72 2.5 ESE 30 39 16 21 1016.5 1016.5 0.0
25/02:30pm 14.3 8.8 9.0 70 2.7 SE 28 37 15 20 1016.4 1016.4 0.0
25/02:00pm 14.0 9.1 9.9 76 2.1 SE 26 33 14 18 1016.6 1016.6 0.0
25/01:30pm 14.5 8.2 9.7 73 2.5 SE 33 43 18 23 1016.2 1016.2 0.0
25/01:00pm 16.3 11.6 9.1 62 3.7 ESE 24 35 13 19 1015.9 1015.9 0.0
25/12:30pm 16.1 11.0 9.1 63 3.6 E 26 32 14 17 1015.7 1015.7 0.0
25/12:00pm 16.7 12.4 9.4 62 3.8 ESE 22 28 12 15 1015.8 1015.8 0.0
25/11:30am 16.7 12.1 9.8 63 3.6 SE 24 32 13 17 1015.8 1015.8 0.0
25/11:00am 16.3 11.5 8.7 60 3.9 ESE 24 32 13 17 1015.6 1015.6 0.0
25/10:30am 15.8 12.0 9.7 67 3.2 ESE 20 32 11 17 1015.5 1015.5 0.0
25/10:00am 16.5 13.2 9.6 63 3.6 SE 17 22 9 12 1015.3 1015.3 0.0
25/09:30am 16.0 13.5 9.7 66 3.3 SE 13 20 7 11 1015.1 1015.1 0.0
25/09:00am 15.6 13.3 10.3 70 2.8 NNE 13 15 7 8 1015.0 1015.0 0.0
25/08:30am 17.3 16.3 10.4 64 3.7 N 6 13 3 7 1014.6 1014.6 0.0
25/08:00am 15.4 13.9 10.5 72 2.6 S 9 17 5 9 1014.2 1014.2 0.0
25/07:30am 15.5 14.1 10.8 73 2.5 S 9 20 5 11 1014.0 1014.0 0.0
25/07:00am 14.7 13.9 11.7 82 1.6 SE 7 15 4 8 1013.4 1013.4 0.0
25/06:30am 13.8 13.2 11.6 86 1.2 SW 6 11 3 6 1012.8 1012.8 0.0
25/06:00am 13.5 13.7 11.8 89 0.9 S 2 7 1 4 1012.4 1012.4 0.0
25/05:30am 13.5 12.9 11.6 88 1.0 NNE 6 9 3 5 1011.8 1011.8 0.0
25/05:00am 13.6 13.1 11.9 89 0.9 ENE 6 7 3 4 1011.4 1011.4 0.0
25/04:30am 13.6 13.0 11.7 88 1.0 N 6 9 3 5 1010.9 1010.9 0.0
25/04:00am 13.7 13.0 12.0 89 0.9 E 7 15 4 8 1010.6 1010.6 0.0
25/03:30am 13.2 12.4 11.7 91 0.8 WNW 7 11 4 6 1009.8 1009.9 0.0
25/03:00am 13.4 12.6 11.7 89 0.9 SSW 7 11 4 6 1009.6 1009.7 0.0
25/02:30am 13.7 12.6 12.0 89 0.9 W 9 19 5 10 1009.5 1009.6 0.0
25/02:00am 13.7 12.7 12.2 91 0.8 W 9 17 5 9 1009.1 1009.2 0.0
25/01:30am 14.0 13.5 12.5 91 0.8 N 7 13 4 7 1008.8 1008.9 0.0
25/01:00am 14.6 13.0 12.8 89 1.0 N 13 20 7 11 1008.8 1008.9 0.0
25/12:30am 14.6 13.8 12.8 89 1.0 NNW 9 13 5 7 1008.8 1008.9 0.0
25/12:00am 15.0 14.5 12.1 83 1.6 NNW 6 9 3 5 1008.6 1008.7 0.0
 
Date/Time
EDT
Tmp

°C
App
Tmp
°C
Dew
Point
°C
Rel
Hum
%
Delta-T

°C
Wind Press
QNH
hPa
Press
MSL
hPa
Rain
since
9 am
mm
Dir
 
Spd
km/h
Gust
km/h
Spd
kts
Gust
kts
24/11:30pm 15.7 15.6 12.2 80 1.9 SSE 4 9 2 5 1008.6 1008.7 0.0
24/11:00pm 16.1 15.7 12.3 78 2.1 SW 6 7 3 4 1008.2 1008.3 0.0
24/10:30pm 16.5 15.8 12.1 75 2.4 W 7 13 4 7 1008.1 1008.2 0.0
24/10:00pm 17.3 16.7 12.2 72 2.8 E 7 13 4 7 1008.2 1008.3 0.0
24/09:30pm 16.7 15.7 12.4 76 2.4 N 9 15 5 8 1008.2 1008.3 0.0
24/09:00pm 16.7 16.4 12.6 77 2.3 S 6 7 3 4 1008.4 1008.5 0.0
24/08:30pm 16.7 16.3 12.9 78 2.1 S 7 9 4 5 1008.2 1008.3 0.0
24/08:00pm 16.8 16.7 13.2 79 2.0 SW 6 9 3 5 1007.8 1007.8 0.0
24/07:30pm 17.5 16.6 12.7 73 2.7 NNE 9 15 5 8 1007.8 1007.8 0.0
24/07:00pm 17.7 16.8 12.7 72 2.8 N 9 13 5 7 1007.7 1007.7 0.0
24/06:30pm 17.7 16.2 13.1 74 2.6 NNE 13 17 7 9 1008.3 1008.4 0.0
24/06:00pm 17.6 16.5 13.0 74 2.6 NE 11 19 6 10 1009.0 1009.1 0.0
24/05:30pm 17.3 14.6 12.8 75 2.5 ENE 19 22 10 12 1009.3 1009.4 0.0
24/05:00pm 17.3 13.9 12.4 73 2.7 ENE 22 28 12 15 1009.5 1009.6 0.0
24/04:30pm 18.0 15.0 12.0 68 3.3 NE 19 28 10 15 1009.6 1009.7 0.0
24/04:00pm 18.4 15.4 12.1 66 3.5 NE 19 24 10 13 1010.1 1010.2 0.0
24/03:30pm 18.2 16.1 11.2 63 3.8 N 13 17 7 9 1011.1 1011.1 0.0
24/03:00pm 18.6 15.4 10.0 57 4.6 NNW 17 22 9 12 1011.5 1011.5 0.0
24/02:30pm 18.5 15.3 9.9 57 4.6 NNW 17 22 9 12 1012.3 1012.3 0.0
24/02:00pm 18.4 15.1 9.5 56 4.7 NW 17 24 9 13 1012.8 1012.8 0.0
24/01:30pm 17.0 13.2 8.9 59 4.2 NW 19 26 10 14 1013.6 1013.6 0.0
24/01:00pm 16.6 12.7 8.6 59 4.1 NNW 19 28 10 15 1014.3 1014.3 0.0
24/12:30pm 16.4 12.5 8.6 60 4.0 NNW 19 28 10 15 1014.9 1014.9 0.0
24/12:00pm 16.9 12.9 8.3 57 4.4 NNW 19 28 10 15 1015.6 1015.6 0.0
24/11:30am 15.9 11.6 7.7 58 4.1 NNW 20 28 11 15 1016.1 1016.1 0.0
24/11:00am 15.6 10.8 7.3 57 4.1 NNW 22 32 12 17 1016.7 1016.7 0.0
24/10:30am 15.5 10.3 7.2 57 4.1 NW 24 37 13 20 1017.0 1017.0 0.0
24/10:00am 13.8 8.0 6.3 60 3.6 NNW 26 41 14 22 1017.7 1017.7 0.0
24/09:30am 12.9 7.3 5.6 61 3.4 NNW 24 35 13 19 1018.2 1018.2 0.0
24/09:00am 11.1 5.8 4.9 65 2.8 NNW 22 32 12 17 1018.8 1018.8 0.0
24/08:30am 11.1 5.0 4.9 65 2.8 NNW 26 32 14 17 1019.6 1019.6 0.0
24/08:00am 11.4 6.4 4.5 62 3.1 NNW 20 32 11 17 1019.9 1019.9 0.0
24/07:30am 10.4 5.3 4.3 66 2.7 NNW 20 28 11 15 1020.1 1020.1 0.0
24/07:00am 10.0 5.5 4.4 68 2.5 NNW 17 28 9 15 1020.5 1020.5 0.0
24/06:30am 8.9 4.8 4.1 72 2.1 N 15 24 8 13 1020.5 1020.5 0.0
24/06:00am 8.2 4.8 4.1 75 1.8 N 11 20 6 11 1020.8 1020.8 0.0
24/05:30am 9.1 4.1 3.8 69 2.3 NNW 19 26 10 14 1021.1 1021.1 0.0
24/05:00am 9.4 4.2 3.6 67 2.5 NNW 20 28 11 15 1021.3 1021.3 0.0
24/04:30am 9.2 4.6 3.7 68 2.4 NNW 17 26 9 14 1021.6 1021.6 0.0
24/04:00am 8.6 4.8 3.7 71 2.1 NNW 13 17 7 9 1021.9 1021.9 0.0
24/03:30am 8.8 4.5 3.4 69 2.3 NNW 15 20 8 11 1022.6 1022.6 0.0
24/03:00am 8.6 4.7 3.5 70 2.2 NNW 13 20 7 11 1023.1 1023.1 0.0
24/02:30am 9.1 4.8 3.3 67 2.5 NNW 15 22 8 12 1023.2 1023.2 0.0
24/02:00am 8.8 4.5 3.4 69 2.3 N 15 20 8 11 1023.6 1023.6 0.0
24/01:30am 8.9 4.8 4.1 72 2.1 N 15 20 8 11 1023.8 1023.8 0.0
24/01:00am 9.0 5.2 3.9 70 2.2 N 13 20 7 11 1024.3 1024.3 0.0
24/12:30am 9.3 5.5 3.8 68 2.4 NNW 13 19 7 10 1024.6 1024.7 0.0
24/12:00am 9.4 5.2 3.9 68 2.4 NNW 15 22 8 12 1024.9 1025.0 0.0
 
Date/Time
EDT
Tmp

°C
App
Tmp
°C
Dew
Point
°C
Rel
Hum
%
Delta-T

°C
Wind Press
QNH
hPa
Press
MSL
hPa
Rain
since
9 am
mm
Dir
 
Spd
km/h
Gust
km/h
Spd
kts
Gust
kts
23/11:30pm 9.7 6.0 4.3 69 2.4 N 13 19 7 10 1025.0 1025.1 0.0
23/11:00pm 9.8 6.4 4.1 67 2.5 N 11 19 6 10 1025.2 1025.3 0.0
23/10:30pm 10.2 6.4 4.1 66 2.7 N 13 19 7 10 1025.1 1025.2 0.0
23/10:00pm 10.3 7.0 4.5 67 2.6 N 11 17 6 9 1025.4 1025.5 0.0
23/09:30pm 10.6 8.1 4.6 66 2.7 NNE 7 13 4 7 1025.6 1025.7 0.0
23/09:00pm 10.5 8.0 5.0 69 2.5 NNE 7 11 4 6 1025.9 1026.0 0.0
23/08:30pm 11.0 8.7 4.8 65 2.8 ENE 6 9 3 5 1025.8 1025.9 0.0
23/08:00pm 11.5 8.3 4.9 64 3.0 ESE 11 17 6 9 1025.7 1025.8 0.0
23/07:30pm 12.0 8.0 4.7 61 3.3 ESE 15 20 8 11 1025.8 1025.9 0.0
23/07:00pm 12.2 7.8 4.5 59 3.5 E 17 22 9 12 1025.6 1025.7 0.0
23/06:30pm 12.8 8.0 4.7 58 3.7 ESE 19 26 10 14 1025.2 1025.3 0.0
23/06:00pm 13.4 8.8 3.9 52 4.3 SE 17 24 9 13 1025.2 1025.3 0.0
23/05:30pm 13.8 9.3 4.1 52 4.4 ESE 17 22 9 12 1025.2 1025.3 0.0
23/05:00pm 13.8 9.5 5.2 56 4.0 SE 17 24 9 13 1025.0 1025.1 0.0
23/04:30pm 14.3 10.0 5.1 54 4.3 SE 17 22 9 12 1024.9 1025.0 0.0
23/04:00pm 14.5 10.1 4.8 52 4.5 ESE 17 22 9 12 1024.9 1025.0 0.0
23/03:30pm 14.5 9.7 4.5 51 4.6 ESE 19 22 10 12 1024.9 1025.0 0.0
23/03:00pm 14.3 9.8 4.3 51 4.6 SE 17 20 9 11 1025.0 1025.1 0.0
23/02:30pm 15.0 10.2 4.4 49 4.9 SE 19 24 10 13 1025.3 1025.4 0.0
23/02:00pm 14.8 10.2 3.8 47 5.0 SE 17 24 9 13 1025.4 1025.5 0.0
23/01:30pm 14.1 9.4 3.1 47 4.9 SE 17 22 9 12 1025.5 1025.6 0.0
23/01:00pm 14.0 9.3 3.0 47 4.9 SE 17 22 9 12 1025.6 1025.7 0.0
23/12:30pm 13.7 9.3 2.8 47 4.8 SSE 15 22 8 12 1025.8 1025.9 0.0
23/12:00pm 13.5 8.2 2.9 48 4.7 ESE 20 30 11 16 1026.1 1026.2 0.0
23/11:30am 12.7 8.0 2.9 51 4.3 ESE 17 22 9 12 1026.4 1026.5 0.0
23/11:00am 12.5 7.6 2.3 50 4.4 SE 17 22 9 12 1026.6 1026.7 0.0
23/10:30am 11.9 7.6 3.2 55 3.8 SSE 15 22 8 12 1026.5 1026.6 0.0
23/10:00am 11.9 7.0 2.1 51 4.2 S 17 24 9 13 1026.5 1026.6 0.0
23/09:30am 11.6 6.2 2.3 53 4.0 S 20 32 11 17 1026.3 1026.4 0.0
23/09:00am 11.3 5.9 1.5 51 4.1 SSE 19 26 10 14 1026.2 1026.3 0.0
23/08:30am 11.4 6.0 2.3 53 3.9 SE 20 28 11 15 1025.9 1026.0 0.0
23/08:00am 11.5 5.3 2.4 53 3.9 SE 24 33 13 18 1025.6 1025.7 0.0
23/07:30am 11.2 5.5 2.9 56 3.6 S 22 33 12 18 1025.1 1025.2 0.0
23/07:00am 11.0 7.2 4.0 62 3.1 SSE 13 22 7 12 1024.6 1024.7 0.0
23/06:30am 10.9 7.5 3.9 62 3.1 S 11 20 6 11 1024.2 1024.2 0.0
23/06:00am 10.8 7.0 3.8 62 3.1 S 13 24 7 13 1023.6 1023.6 0.0
23/05:30am 10.8 6.2 3.8 62 3.1 S 17 28 9 15 1023.1 1023.1 0.0
23/05:00am 10.7 6.6 4.2 64 2.9 S 15 22 8 12 1022.6 1022.6 0.0
23/04:30am 10.8 6.7 4.6 65 2.8 SSE 15 26 8 14 1022.5 1022.5 0.0
23/04:00am 11.1 6.3 4.7 64 2.9 SE 19 28 10 15 1022.2 1022.2 0.0
23/03:30am 11.3 7.1 5.7 68 2.6 S 17 24 9 13 1021.9 1021.9 0.0
23/03:00am 11.4 7.4 6.8 73 2.2 S 17 30 9 16 1021.8 1021.8 0.0
23/02:30am 11.7 7.0 7.6 76 2.0 S 22 39 12 21 1021.7 1021.7 0.0
23/02:00am 11.8 7.8 8.1 78 1.8 S 19 32 10 17 1021.3 1021.3 0.0
23/01:30am 12.4 6.8 8.6 77 1.9 SSW 28 41 15 22 1021.2 1021.2 0.0
23/01:00am 13.0 7.5 9.2 78 1.9 S 28 39 15 21 1021.1 1021.1 0.0
23/12:41am 13.4 8.0 9.5 77 2.0 S 28 46 15 25 1020.9 1020.9 0.0
23/12:30am 13.8 8.7 9.1 73 2.4 SSW 26 39 14 21 1020.8 1020.8 0.0
23/12:00am 14.0 8.5 9.3 73 2.4 SSW 28 43 15 23 1020.3 1020.3 0.0
 
Date/Time
EDT
Tmp

°C
App
Tmp
°C
Dew
Point
°C
Rel
Hum
%
Delta-T

°C
Wind Press
QNH
hPa
Press
MSL
hPa
Rain
since
9 am
mm
Dir
 
Spd
km/h
Gust
km/h
Spd
kts
Gust
kts
22/11:30pm 14.1 9.1 9.4 73 2.4 S 26 37 14 20 1020.0 1020.0 0.0
22/11:00pm 14.1 8.7 9.4 73 2.4 SSW 28 44 15 24 1019.4 1019.4 0.0
22/10:30pm 14.6 9.4 10.4 76 2.2 SSW 28 39 15 21 1018.9 1018.9 0.0
22/10:00pm 14.3 13.4 11.3 82 1.6 ENE 7 9 4 5 1018.5 1018.5 0.0
22/09:30pm 14.0 11.3 11.8 86 1.2 E 17 24 9 13 1018.3 1018.3 0.0
22/09:00pm 14.0 11.7 11.6 85 1.3 ESE 15 20 8 11 1017.8 1017.8 0.0

Latest Capital City Observations: Canberra | Sydney | Melbourne | Brisbane | Adelaide | Perth | Hobart | Darwin

Other Formats:

Comma delimited format used in spreadsheet applications
http://www.bom.gov.au/fwo/IDT60901/IDT60901.94970.axf

JavaScript Object Notation format (JSON) in row-major order
http://www.bom.gov.au/fwo/IDT60901/IDT60901.94970.json